createdAt,value
2023-07-30T00:00:33.114Z,2.42
2023-07-30T00:03:35.437Z,2.40
2023-07-30T00:06:37.630Z,1.87
2023-07-30T00:09:40.240Z,2.60
2023-07-30T00:12:42.826Z,2.33
2023-07-30T00:15:48.172Z,2.90
2023-07-30T00:18:50.491Z,2.30
2023-07-30T00:21:52.681Z,2.40
2023-07-30T00:24:54.905Z,2.67
2023-07-30T00:27:57.182Z,2.58
2023-07-30T00:30:59.664Z,2.40
2023-07-30T00:34:02.150Z,2.40
2023-07-30T00:37:04.576Z,2.50
2023-07-30T00:40:07.494Z,2.08
2023-07-30T00:43:09.672Z,2.30
2023-07-30T00:46:12.646Z,2.13
2023-07-30T00:49:14.977Z,2.15
2023-07-30T00:52:18.565Z,1.80
2023-07-30T00:55:20.851Z,1.65
2023-07-30T00:58:24.186Z,1.65
2023-07-30T01:01:26.416Z,1.80
2023-07-30T01:04:28.732Z,1.23
2023-07-30T01:07:32.353Z,1.00
2023-07-30T01:10:35.299Z,1.08
2023-07-30T01:13:37.469Z,1.50
2023-07-30T01:16:39.803Z,1.30
2023-07-30T01:19:42.375Z,0.90
2023-07-30T01:22:44.624Z,1.27
2023-07-30T01:25:48.569Z,1.17
2023-07-30T01:28:52.975Z,1.05
2023-07-30T01:32:06.595Z,1.13
2023-07-30T01:35:10.098Z,0.88
2023-07-30T01:38:12.633Z,0.93
2023-07-30T01:41:14.858Z,1.00
2023-07-30T01:44:17.166Z,1.20
2023-07-30T01:47:19.324Z,0.87
2023-07-30T01:50:21.566Z,1.20
2023-07-30T01:53:24.020Z,1.10
2023-07-30T01:56:26.263Z,1.20
2023-07-30T01:59:28.421Z,1.20
2023-07-30T02:02:30.673Z,1.10
2023-07-30T02:05:32.987Z,0.82
2023-07-30T02:08:35.223Z,1.23
2023-07-30T02:11:37.609Z,1.10
2023-07-30T02:14:39.923Z,0.90
2023-07-30T02:17:42.235Z,0.83
2023-07-30T02:20:44.654Z,0.70
2023-07-30T02:23:46.870Z,0.85
2023-07-30T02:26:49.807Z,0.80
2023-07-30T02:29:53.319Z,0.93
2023-07-30T02:32:55.625Z,1.00
2023-07-30T02:35:58.207Z,1.15
2023-07-30T02:39:00.443Z,1.03
2023-07-30T02:42:03.200Z,0.90
2023-07-30T02:45:06.370Z,1.00
2023-07-30T02:48:08.640Z,1.00
2023-07-30T02:51:10.853Z,1.00
2023-07-30T02:54:13.040Z,1.00
2023-07-30T02:57:15.355Z,1.00
2023-07-30T03:00:17.934Z,0.98
2023-07-30T03:03:20.306Z,0.85
2023-07-30T03:06:22.542Z,1.13
2023-07-30T03:09:24.700Z,1.10
2023-07-30T03:12:26.949Z,1.10
2023-07-30T03:15:29.199Z,0.80
2023-07-30T03:18:31.578Z,1.17
2023-07-30T03:21:33.847Z,1.00
2023-07-30T03:24:36.987Z,1.20
2023-07-30T03:27:39.682Z,1.25
2023-07-30T03:30:42.056Z,1.15
2023-07-30T03:33:44.911Z,1.17
2023-07-30T03:36:47.253Z,1.00
2023-07-30T03:39:49.453Z,0.87
2023-07-30T03:42:51.762Z,1.10
2023-07-30T03:45:53.959Z,1.20
2023-07-30T03:48:56.157Z,1.47
2023-07-30T03:52:24.061Z,1.20
2023-07-30T03:55:26.247Z,1.20
2023-07-30T03:58:28.652Z,1.27
2023-07-30T04:01:31.616Z,1.65
2023-07-30T04:04:33.798Z,1.20
2023-07-30T04:07:36.662Z,1.50
2023-07-30T04:10:40.210Z,1.50
2023-07-30T04:13:43.317Z,1.30
2023-07-30T04:16:48.279Z,0.90
2023-07-30T04:19:50.636Z,1.13
2023-07-30T04:22:53.108Z,1.17
2023-07-30T04:25:55.387Z,1.40
2023-07-30T04:28:57.643Z,1.27
2023-07-30T04:31:59.873Z,1.15
2023-07-30T04:35:04.076Z,1.30
2023-07-30T04:38:06.628Z,1.50
2023-07-30T04:41:09.174Z,1.17
2023-07-30T04:44:17.294Z,1.33
2023-07-30T04:47:19.850Z,1.05
2023-07-30T04:50:22.641Z,1.10
2023-07-30T04:53:24.861Z,1.20
2023-07-30T04:56:27.973Z,1.25
2023-07-30T04:59:30.667Z,1.35
2023-07-30T05:02:32.967Z,1.10
2023-07-30T05:05:35.202Z,1.27
2023-07-30T05:08:37.380Z,1.52
2023-07-30T05:11:40.490Z,1.40
2023-07-30T05:14:42.880Z,1.40
2023-07-30T05:17:45.134Z,1.30
2023-07-30T05:20:47.670Z,1.37
2023-07-30T05:23:49.889Z,1.23
2023-07-30T05:26:52.065Z,1.10
2023-07-30T05:29:54.264Z,1.13
2023-07-30T05:32:56.576Z,1.23
2023-07-30T05:35:58.816Z,1.40
2023-07-30T05:39:00.969Z,2.25
2023-07-30T05:42:03.475Z,1.00
2023-07-30T05:45:06.196Z,1.02
2023-07-30T05:48:08.426Z,1.10
2023-07-30T05:51:10.746Z,1.20
2023-07-30T05:54:13.818Z,1.10
2023-07-30T05:57:16.010Z,1.30
2023-07-30T06:00:18.193Z,1.73
2023-07-30T06:03:20.583Z,1.25
2023-07-30T06:06:28.288Z,0.93
2023-07-30T06:09:30.457Z,1.30
2023-07-30T06:12:32.612Z,1.27
2023-07-30T06:15:35.412Z,1.33
2023-07-30T06:18:37.750Z,1.23
2023-07-30T06:21:40.258Z,1.50
2023-07-30T06:24:42.606Z,1.65
2023-07-30T06:27:44.831Z,1.45
2023-07-30T06:30:47.021Z,1.10
2023-07-30T06:33:49.194Z,1.20
2023-07-30T06:36:51.430Z,1.40
2023-07-30T06:39:53.635Z,1.25
2023-07-30T06:42:55.843Z,1.30
2023-07-30T06:45:58.186Z,1.23
2023-07-30T06:49:00.392Z,1.25
2023-07-30T06:52:02.571Z,1.13
2023-07-30T06:55:05.114Z,1.63
2023-07-30T06:58:07.444Z,1.58
2023-07-30T07:01:09.647Z,1.25
2023-07-30T07:04:11.916Z,1.70
2023-07-30T07:07:14.125Z,1.13
2023-07-30T07:10:16.446Z,1.23
2023-07-30T07:13:18.951Z,1.13
2023-07-30T07:16:21.209Z,1.38
2023-07-30T07:19:24.048Z,1.30
2023-07-30T07:22:26.202Z,1.37
2023-07-30T07:25:28.433Z,1.20
2023-07-30T07:28:30.615Z,1.27
2023-07-30T07:31:35.088Z,1.45
2023-07-30T07:34:38.428Z,1.40
2023-07-30T07:37:40.623Z,1.70
2023-07-30T07:40:42.867Z,1.58
2023-07-30T07:43:46.989Z,1.30
2023-07-30T07:46:49.215Z,1.25
2023-07-30T07:49:51.529Z,1.23
2023-07-30T07:52:53.784Z,1.63
2023-07-30T07:55:55.960Z,1.13
2023-07-30T07:58:58.986Z,1.48
2023-07-30T08:02:01.281Z,1.55
2023-07-30T08:05:04.362Z,1.30
2023-07-30T08:08:06.812Z,1.23
2023-07-30T08:11:09.695Z,1.83
2023-07-30T08:14:11.990Z,1.60
2023-07-30T08:17:16.376Z,1.65
2023-07-30T08:20:21.922Z,1.23
2023-07-30T08:23:24.076Z,1.60
2023-07-30T08:26:26.236Z,1.73
2023-07-30T08:29:28.413Z,1.10
2023-07-30T08:32:30.621Z,1.23
2023-07-30T08:35:32.910Z,1.60
2023-07-30T08:38:36.542Z,1.50
2023-07-30T08:41:41.778Z,1.40
2023-07-30T08:44:44.468Z,1.20
2023-07-30T08:47:48.254Z,1.40
2023-07-30T08:50:50.934Z,1.30
2023-07-30T08:53:53.423Z,1.30
2023-07-30T08:56:55.707Z,1.05
2023-07-30T09:00:04.451Z,1.30
2023-07-30T09:03:07.937Z,1.33
2023-07-30T09:06:10.102Z,1.30
2023-07-30T09:09:13.012Z,1.20
2023-07-30T09:12:16.945Z,1.23
2023-07-30T09:15:19.333Z,1.20
2023-07-30T09:18:21.518Z,1.17
2023-07-30T09:21:34.943Z,1.17
2023-07-30T09:24:37.584Z,1.27
2023-07-30T09:27:40.341Z,1.23
2023-07-30T09:30:42.683Z,1.20
2023-07-30T09:33:44.836Z,1.40
2023-07-30T09:36:50.002Z,1.65
2023-07-30T09:39:53.599Z,1.08
2023-07-30T09:42:58.982Z,1.00
2023-07-30T09:46:05.876Z,0.93
2023-07-30T09:49:09.766Z,1.10
2023-07-30T09:52:13.194Z,1.10
2023-07-30T09:55:16.619Z,1.33
2023-07-30T09:58:18.883Z,1.55
2023-07-30T10:01:28.375Z,1.00
2023-07-30T10:04:33.110Z,1.15
2023-07-30T10:07:35.591Z,1.20
2023-07-30T10:10:37.905Z,1.00
2023-07-30T10:13:42.444Z,1.30
2023-07-30T10:16:55.377Z,0.93
2023-07-30T10:19:57.776Z,1.17
2023-07-30T10:23:01.840Z,1.38
2023-07-30T10:26:11.595Z,1.67
2023-07-30T10:29:21.488Z,1.27
2023-07-30T10:32:23.926Z,1.50
2023-07-30T10:35:47.340Z,1.10
2023-07-30T10:38:49.891Z,1.30
2023-07-30T10:41:56.284Z,1.27
2023-07-30T10:44:59.010Z,1.50
2023-07-30T10:48:07.292Z,1.43
2023-07-30T10:51:18.583Z,1.63
2023-07-30T10:54:20.944Z,1.42
2023-07-30T10:57:23.236Z,1.70
2023-07-30T11:00:25.470Z,1.38
2023-07-30T11:03:28.426Z,1.58
2023-07-30T11:06:30.814Z,1.48
2023-07-30T11:09:33.514Z,1.08
2023-07-30T11:12:35.708Z,1.20
2023-07-30T11:15:45.160Z,1.20
2023-07-30T11:18:48.972Z,1.20
2023-07-30T11:21:54.761Z,1.40
2023-07-30T11:24:57.202Z,1.27
2023-07-30T11:28:01.493Z,1.20
2023-07-30T11:31:16.280Z,1.33
2023-07-30T11:34:19.749Z,0.82
2023-07-30T11:37:23.276Z,1.50
2023-07-30T11:40:25.552Z,1.35
2023-07-30T11:43:27.827Z,1.58
2023-07-30T11:46:32.098Z,1.27
2023-07-30T11:49:34.925Z,1.30
2023-07-30T11:52:37.406Z,1.63
2023-07-30T11:55:41.150Z,1.27
2023-07-30T11:58:43.605Z,1.40
2023-07-30T12:01:45.855Z,1.30
2023-07-30T12:04:58.619Z,1.42
2023-07-30T12:08:05.338Z,1.40
2023-07-30T12:11:09.280Z,1.80
2023-07-30T12:14:11.574Z,1.70
2023-07-30T12:17:15.289Z,1.70
2023-07-30T12:20:17.521Z,1.77
2023-07-30T12:23:21.938Z,2.03
2023-07-30T12:26:24.149Z,1.90
2023-07-30T12:29:26.876Z,2.23
2023-07-30T12:32:30.575Z,2.17
2023-07-30T12:35:33.581Z,1.80
2023-07-30T12:38:36.148Z,1.80
2023-07-30T12:41:38.635Z,1.52
2023-07-30T12:44:40.983Z,1.42
2023-07-30T12:47:43.370Z,1.60
2023-07-30T12:50:46.297Z,1.80
2023-07-30T12:53:48.508Z,1.52
2023-07-30T12:56:50.755Z,1.60
2023-07-30T12:59:53.064Z,1.77
2023-07-30T13:02:56.835Z,1.55
2023-07-30T13:05:59.391Z,1.30
2023-07-30T13:09:01.596Z,1.25
2023-07-30T13:12:03.978Z,1.20
2023-07-30T13:15:07.368Z,1.20
2023-07-30T13:18:09.559Z,1.27
2023-07-30T13:21:11.772Z,1.10
2023-07-30T13:24:13.999Z,1.20
2023-07-30T13:27:16.295Z,1.23
2023-07-30T13:30:18.587Z,1.37
2023-07-30T13:33:20.865Z,1.40
2023-07-30T13:36:23.347Z,1.40
2023-07-30T13:39:25.840Z,1.42
2023-07-30T13:42:27.986Z,1.30
2023-07-30T13:45:30.287Z,1.40
2023-07-30T13:48:32.520Z,1.55
2023-07-30T13:51:34.807Z,1.30
2023-07-30T13:54:36.979Z,1.27
2023-07-30T13:57:39.187Z,1.33
2023-07-30T14:00:42.496Z,1.37
2023-07-30T14:03:44.949Z,1.55
2023-07-30T14:06:47.190Z,1.17
2023-07-30T14:09:49.421Z,1.33
2023-07-30T14:12:51.684Z,1.08
2023-07-30T14:15:54.014Z,1.40
2023-07-30T14:18:56.181Z,1.67
2023-07-30T14:21:58.406Z,1.33
2023-07-30T14:25:00.587Z,1.25
2023-07-30T14:28:03.073Z,1.08
2023-07-30T14:31:05.338Z,1.60
2023-07-30T14:34:07.570Z,1.10
2023-07-30T14:37:12.679Z,1.38
2023-07-30T14:40:14.905Z,1.30
2023-07-30T14:43:17.098Z,1.23
2023-07-30T14:46:19.388Z,1.08
2023-07-30T14:49:21.613Z,1.20
2023-07-30T14:52:23.816Z,1.00
2023-07-30T14:55:26.336Z,1.10
2023-07-30T14:58:28.518Z,1.15
2023-07-30T15:01:31.164Z,1.33
2023-07-30T15:04:33.435Z,1.00
2023-07-30T15:07:35.860Z,1.10
2023-07-30T15:10:38.388Z,1.10
2023-07-30T15:13:41.211Z,0.85
2023-07-30T15:16:43.391Z,1.07
2023-07-30T15:19:47.883Z,0.65
2023-07-30T15:22:50.051Z,1.08
2023-07-30T15:25:53.937Z,1.17
2023-07-30T15:28:56.185Z,1.17
2023-07-30T15:31:58.490Z,1.02
2023-07-30T15:35:00.786Z,1.00
2023-07-30T15:38:06.945Z,0.83
2023-07-30T15:41:09.175Z,1.13
2023-07-30T15:44:11.383Z,1.10
2023-07-30T15:47:14.570Z,0.80
2023-07-30T15:50:17.202Z,1.42
2023-07-30T15:53:20.096Z,1.00
2023-07-30T15:56:22.615Z,1.00
2023-07-30T15:59:26.641Z,1.20
2023-07-30T16:02:30.467Z,1.02
2023-07-30T16:05:33.208Z,1.20
2023-07-30T16:08:39.320Z,1.08
2023-07-30T16:11:41.547Z,0.95
2023-07-30T16:14:45.240Z,1.05
2023-07-30T16:17:47.575Z,0.77
2023-07-30T16:20:49.843Z,1.27
2023-07-30T16:23:52.047Z,1.00
2023-07-30T16:26:54.319Z,0.90
2023-07-30T16:29:56.586Z,1.10
2023-07-30T16:32:58.847Z,0.80
2023-07-30T16:36:05.038Z,1.00
2023-07-30T16:39:07.911Z,0.88
2023-07-30T16:42:10.111Z,0.93
2023-07-30T16:45:12.335Z,1.00
2023-07-30T16:48:14.549Z,1.08
2023-07-30T16:51:17.700Z,1.20
2023-07-30T16:54:20.029Z,0.98
2023-07-30T16:57:22.203Z,0.90
2023-07-30T17:00:25.639Z,1.13
2023-07-30T17:03:27.993Z,1.10
2023-07-30T17:06:30.327Z,1.10
2023-07-30T17:09:33.226Z,1.15
2023-07-30T17:12:35.410Z,1.10
2023-07-30T17:15:37.606Z,1.20
2023-07-30T17:18:39.800Z,1.25
2023-07-30T17:21:41.999Z,1.00
2023-07-30T17:24:44.208Z,1.05
2023-07-30T17:27:46.366Z,0.90
2023-07-30T17:30:49.728Z,1.33
2023-07-30T17:33:52.016Z,0.67
2023-07-30T17:36:54.217Z,1.10
2023-07-30T17:39:56.429Z,1.15
2023-07-30T17:42:58.662Z,1.07
2023-07-30T17:46:04.255Z,1.20
2023-07-30T17:49:07.493Z,1.20
2023-07-30T17:52:12.373Z,1.10
2023-07-30T17:55:14.578Z,1.20
2023-07-30T17:58:16.840Z,1.40
2023-07-30T18:01:19.134Z,1.10
2023-07-30T18:04:21.569Z,0.90
2023-07-30T18:07:23.826Z,0.80
2023-07-30T18:10:25.988Z,1.20
2023-07-30T18:13:28.164Z,0.90
2023-07-30T18:16:30.524Z,1.10
2023-07-30T18:19:32.815Z,1.20
2023-07-30T18:22:34.975Z,1.17
2023-07-30T18:25:37.236Z,1.00
2023-07-30T18:28:39.480Z,0.90
2023-07-30T18:31:44.316Z,0.82
2023-07-30T18:34:46.532Z,1.10
2023-07-30T18:37:48.728Z,0.95
2023-07-30T18:40:50.910Z,0.90
2023-07-30T18:43:53.134Z,0.90
2023-07-30T18:47:01.642Z,1.20
2023-07-30T18:50:04.685Z,1.30
2023-07-30T18:53:06.922Z,1.00
2023-07-30T18:56:09.199Z,0.90
2023-07-30T18:59:11.384Z,0.90
2023-07-30T19:02:15.047Z,1.05
2023-07-30T19:05:17.439Z,1.50
2023-07-30T19:08:21.921Z,1.40
2023-07-30T19:11:24.170Z,1.10
2023-07-30T19:14:26.505Z,1.13
2023-07-30T19:17:28.799Z,1.30
2023-07-30T19:20:31.042Z,1.27
2023-07-30T19:23:33.288Z,1.15
2023-07-30T19:26:35.514Z,1.20
2023-07-30T19:29:37.730Z,1.30
2023-07-30T19:32:40.039Z,1.10
2023-07-30T19:35:51.155Z,0.90
2023-07-30T19:38:54.085Z,1.00
2023-07-30T19:41:56.273Z,1.00
2023-07-30T19:44:59.189Z,1.00
2023-07-30T19:48:01.708Z,1.40
2023-07-30T19:51:04.374Z,1.30
2023-07-30T19:54:06.611Z,1.13
2023-07-30T19:57:08.772Z,1.00
2023-07-30T20:00:11.561Z,1.13
2023-07-30T20:03:14.722Z,1.17
2023-07-30T20:06:17.352Z,1.13
2023-07-30T20:09:20.007Z,1.20
2023-07-30T20:12:22.205Z,1.33
2023-07-30T20:15:24.384Z,1.45
2023-07-30T20:18:29.940Z,1.25
2023-07-30T20:21:32.104Z,0.90
2023-07-30T20:24:34.287Z,1.08
2023-07-30T20:27:36.719Z,1.30
2023-07-30T20:30:38.955Z,1.25
2023-07-30T20:33:41.397Z,1.20
2023-07-30T20:36:43.676Z,1.13
2023-07-30T20:39:45.893Z,1.17
2023-07-30T20:42:49.114Z,1.20
2023-07-30T20:45:51.358Z,1.23
2023-07-30T20:48:54.072Z,1.20
2023-07-30T20:51:56.269Z,1.60
2023-07-30T20:54:58.505Z,1.40
2023-07-30T20:58:00.917Z,1.00
2023-07-30T21:01:03.283Z,1.40
2023-07-30T21:04:05.643Z,1.20
2023-07-30T21:07:07.856Z,1.10
2023-07-30T21:10:10.391Z,1.27
2023-07-30T21:13:12.600Z,1.10
2023-07-30T21:16:14.934Z,1.20
2023-07-30T21:19:17.181Z,1.10
2023-07-30T21:22:19.406Z,1.27
2023-07-30T21:25:21.708Z,1.50
2023-07-30T21:28:24.090Z,1.00
2023-07-30T21:31:26.413Z,1.23
2023-07-30T21:34:28.674Z,1.10
2023-07-30T21:37:31.267Z,1.43
2023-07-30T21:40:33.483Z,1.30
2023-07-30T21:43:35.684Z,1.20
2023-07-30T21:46:38.120Z,1.30
2023-07-30T21:49:40.737Z,1.20
2023-07-30T21:52:43.867Z,1.45
2023-07-30T21:55:46.112Z,1.25
2023-07-30T21:58:48.249Z,1.50
2023-07-30T22:01:50.454Z,1.52
2023-07-30T22:04:52.666Z,1.48
2023-07-30T22:07:54.904Z,1.53
2023-07-30T22:10:57.077Z,1.63
2023-07-30T22:13:59.288Z,1.85
2023-07-30T22:17:01.578Z,1.63
2023-07-30T22:20:04.060Z,2.05
2023-07-30T22:23:06.328Z,1.20
2023-07-30T22:26:08.513Z,2.05
2023-07-30T22:29:10.687Z,1.30
2023-07-30T22:32:12.837Z,1.83
2023-07-30T22:35:15.045Z,1.60
2023-07-30T22:38:17.245Z,1.70
2023-07-30T22:41:19.510Z,1.90
2023-07-30T22:44:21.662Z,1.75
2023-07-30T22:47:24.000Z,1.83
2023-07-30T22:50:26.390Z,1.58
2023-07-30T22:53:28.616Z,1.60
2023-07-30T22:56:33.688Z,1.67
2023-07-30T22:59:35.888Z,1.60
2023-07-30T23:02:38.192Z,1.70
2023-07-30T23:05:40.645Z,1.20
2023-07-30T23:08:43.002Z,1.50
2023-07-30T23:11:47.099Z,1.70
2023-07-30T23:14:49.306Z,1.67
2023-07-30T23:17:51.664Z,1.50
2023-07-30T23:20:54.039Z,1.90
2023-07-30T23:23:56.250Z,1.73
2023-07-30T23:26:58.490Z,1.90
2023-07-30T23:30:00.689Z,1.40
2023-07-30T23:33:03.153Z,1.55
2023-07-30T23:36:09.420Z,1.70
2023-07-30T23:39:11.609Z,1.60
2023-07-30T23:42:13.808Z,1.42
2023-07-30T23:45:18.535Z,1.70
2023-07-30T23:48:21.230Z,1.50
2023-07-30T23:51:23.423Z,1.58
2023-07-30T23:54:25.564Z,1.90
2023-07-30T23:57:27.770Z,1.40
